Aeroporto :
LOGIN :

Iscrizione | Disclaimer

   EN    FR    IT 

 










Sommario :    VFR   VFR Marginale   IFR   IFR Intensivo   IFR Molto Intensivo
Visibilità : 
Base nubi : 
>= 8 km
>= 3000ft
5 / 8 km
1000 / 3000 ft
1500m / 5 km
500 / 1000 ft
800 / 1500m
200 / 500 ft
< 800m
< 200 ft
Simboli :   Temporali  Nebbia  Neve Forte  Precipitazioni Forti  Vento > 20 kt
SIGMETs :   Varie  Temporali  Ghiacco  Turbolenza  Onda orograficha  Ceneri Vulcaniche






- Altitudine del aeroporto : 602 ft
- Codice IATA : NVS


LFQG - Nevers

ULTIMO METAR :
  • 181130Z AUTO 32007KT 270V350 9999 FEW040/// BKN094/// BKN170/// ///CB 25/16 Q1014

METARs OBSOLETI :
  • 181100Z AUTO 32006KT 240V020 9999 BKN034 BKN044 BKN062 24/16 Q1014
  • 181030Z AUTO 30007KT 270V330 9999 FEW033 24/16 Q1014
  • 181000Z AUTO 31007KT 280V350 CAVOK 23/16 Q1014
  • 180930Z AUTO 31008KT CAVOK 22/16 Q1013
  • 180900Z AUTO 31008KT CAVOK 21/16 Q1014

TAF N/A



MetMap, La meteo Aeronautica in un colpo d'occhio ! - Copyright ORBIFLY Dicembre 2007 - Disclaimer

ORBIFLY MET'MAP TEAM :

Programmazione e sviluppo : Alexandra Zaïnal
Concezione : Baudouin d'Aumeries
Supporto tecnico e logistico : Manuel Goepfert
Aiuto : Marc-Olivier Méhu
Aiuto per la traduzione : Arnaldo La Scala




FONTI E CREDITI :

   NOAA